Airfield :
LOGIN :

Register | Disclaimer

   EN    FR    IT 

 










Legend :    VFR   Marginal VFR   IFR   Intensive IFR   Very Intensive IFR
Visi :
Ceiling :
>= 8 km
>= 3000ft
5 to 8 km
1000 to 3000 ft
1500m to 5 km
500 to 1000 ft
800 to 1500m
200 to 500 ft
< 800m
< 200 ft
Symbols :   Thunderstorms  Fog  Heavy snow  Heavy precipitations  Wind > 20 kt
SIGMETs :     Misc.  Thunderstorms  Icing  Turbulence  Mountain Waves  Volcanic Ashes






- Airport Elevation : 286 ft
- IATA code : TRF


ENTO - Sandefjord , Torp

CURRENT METAR :
  • 272120Z 33003KT 9999 OVC049 M03/M07 Q0999 NOSIG

EXPIRED METARs :
  • 272050Z 35003KT CAVOK M03/M07 Q0998 NOSIG
  • 272020Z 33003KT 9999 OVC049 M03/M07 Q0998 NOSIG
  • 271950Z 34003KT 9999 OVC049 M03/M07 Q0998 NOSIG
  • 271920Z 35002KT 9999 BKN053 M03/M07 Q0998 NOSIG
  • 271850Z 36003KT 9999 FEW059 M03/M07 Q0998 NOSIG

TAF ENTO
Valid from the 27 at 18:00 until the 28 at 18:00 UTC


2718/2818 02007KT 9999 FEW020 BKN060
PROB30
TEMPO 2806/2813 3000 -SN VV010
BECMG 2808/2810 22010KT



MET'MAP, your aeronautical weather chart ! - Copyright ORBIFLY December 2007 - Disclaimer

ORBIFLY MET'MAP TEAM :

Programming & Development : Alexandra Zaïnal
Concept & original design : Baudouin d'Aumeries
Assistance for programming : Marc-Olivier Méhu
Technical & hardware support : Manuel Goepfert

Contact : metmap@orbifly.com




SOURCES & CREDITS :

   NOAA